sensor_id;sensor_type;location;lat;lon;timestamp;P1;durP1;ratioP1;P2;durP2;ratioP2
16973;SDS011;8603;46.944;7.412;2023-05-07T00:01:45;4.03;;;2.87;;
16973;SDS011;8603;46.944;7.412;2023-05-07T00:04:12;4.47;;;2.97;;
16973;SDS011;8603;46.944;7.412;2023-05-07T00:06:38;3.50;;;2.87;;
16973;SDS011;8603;46.944;7.412;2023-05-07T00:09:04;4.00;;;2.60;;
16973;SDS011;8603;46.944;7.412;2023-05-07T00:11:31;2.87;;;2.57;;
16973;SDS011;8603;46.944;7.412;2023-05-07T00:13:57;3.17;;;2.87;;
16973;SDS011;8603;46.944;7.412;2023-05-07T00:16:23;3.53;;;2.87;;
16973;SDS011;8603;46.944;7.412;2023-05-07T00:18:48;3.87;;;2.80;;
16973;SDS011;8603;46.944;7.412;2023-05-07T00:21:14;3.03;;;2.70;;
16973;SDS011;8603;46.944;7.412;2023-05-07T00:23:40;3.63;;;2.63;;
16973;SDS011;8603;46.944;7.412;2023-05-07T00:26:05;3.50;;;3.20;;
16973;SDS011;8603;46.944;7.412;2023-05-07T00:28:31;5.30;;;3.77;;
16973;SDS011;8603;46.944;7.412;2023-05-07T00:30:56;3.73;;;3.33;;
16973;SDS011;8603;46.944;7.412;2023-05-07T00:33:22;4.87;;;2.80;;
16973;SDS011;8603;46.944;7.412;2023-05-07T00:35:48;4.90;;;3.00;;
16973;SDS011;8603;46.944;7.412;2023-05-07T00:38:14;3.30;;;3.00;;
16973;SDS011;8603;46.944;7.412;2023-05-07T00:40:40;3.70;;;2.97;;
16973;SDS011;8603;46.944;7.412;2023-05-07T00:43:06;3.80;;;3.00;;
16973;SDS011;8603;46.944;7.412;2023-05-07T00:45:33;3.33;;;2.80;;
16973;SDS011;8603;46.944;7.412;2023-05-07T00:48:00;5.73;;;3.20;;
16973;SDS011;8603;46.944;7.412;2023-05-07T00:50:28;3.37;;;2.60;;
16973;SDS011;8603;46.944;7.412;2023-05-07T00:52:55;3.70;;;3.00;;
16973;SDS011;8603;46.944;7.412;2023-05-07T00:55:21;3.13;;;2.80;;
16973;SDS011;8603;46.944;7.412;2023-05-07T00:57:51;3.90;;;2.80;;
16973;SDS011;8603;46.944;7.412;2023-05-07T01:00:17;3.50;;;2.90;;
16973;SDS011;8603;46.944;7.412;2023-05-07T01:02:43;3.43;;;3.13;;
16973;SDS011;8603;46.944;7.412;2023-05-07T01:05:09;3.27;;;2.87;;
16973;SDS011;8603;46.944;7.412;2023-05-07T01:07:36;3.73;;;3.07;;
16973;SDS011;8603;46.944;7.412;2023-05-07T01:10:07;5.23;;;3.03;;
16973;SDS011;8603;46.944;7.412;2023-05-07T01:12:35;5.73;;;3.53;;
16973;SDS011;8603;46.944;7.412;2023-05-07T01:15:02;4.93;;;3.70;;
16973;SDS011;8603;46.944;7.412;2023-05-07T01:17:32;3.90;;;3.13;;
16973;SDS011;8603;46.944;7.412;2023-05-07T01:20:03;3.47;;;3.17;;
16973;SDS011;8603;46.944;7.412;2023-05-07T01:22:33;4.67;;;2.60;;
16973;SDS011;8603;46.944;7.412;2023-05-07T01:25:01;4.20;;;3.27;;
16973;SDS011;8603;46.944;7.412;2023-05-07T01:27:31;2.60;;;2.40;;
16973;SDS011;8603;46.944;7.412;2023-05-07T01:29:58;3.63;;;2.93;;
16973;SDS011;8603;46.944;7.412;2023-05-07T01:32:45;3.17;;;2.80;;
16973;SDS011;8603;46.944;7.412;2023-05-07T01:35:19;3.40;;;3.10;;
16973;SDS011;8603;46.944;7.412;2023-05-07T01:37:48;3.57;;;2.77;;
16973;SDS011;8603;46.944;7.412;2023-05-07T01:40:15;4.80;;;2.97;;
16973;SDS011;8603;46.944;7.412;2023-05-07T01:42:42;4.90;;;3.20;;
16973;SDS011;8603;46.944;7.412;2023-05-07T01:45:08;3.17;;;2.87;;
16973;SDS011;8603;46.944;7.412;2023-05-07T01:47:35;4.23;;;3.27;;
16973;SDS011;8603;46.944;7.412;2023-05-07T01:50:02;2.90;;;2.70;;
16973;SDS011;8603;46.944;7.412;2023-05-07T01:52:30;5.30;;;2.97;;
16973;SDS011;8603;46.944;7.412;2023-05-07T01:54:56;3.87;;;2.50;;
16973;SDS011;8603;46.944;7.412;2023-05-07T01:57:22;3.50;;;3.20;;
16973;SDS011;8603;46.944;7.412;2023-05-07T01:59:47;4.03;;;2.90;;
16973;SDS011;8603;46.944;7.412;2023-05-07T02:02:13;3.60;;;2.70;;
16973;SDS011;8603;46.944;7.412;2023-05-07T02:04:39;3.60;;;3.00;;
16973;SDS011;8603;46.944;7.412;2023-05-07T02:07:05;2.70;;;2.50;;
16973;SDS011;8603;46.944;7.412;2023-05-07T02:09:30;5.37;;;3.17;;
16973;SDS011;8603;46.944;7.412;2023-05-07T02:11:56;2.93;;;2.37;;
16973;SDS011;8603;46.944;7.412;2023-05-07T02:14:22;3.33;;;2.60;;
16973;SDS011;8603;46.944;7.412;2023-05-07T02:16:49;3.53;;;3.23;;
16973;SDS011;8603;46.944;7.412;2023-05-07T02:19:15;3.43;;;3.13;;
16973;SDS011;8603;46.944;7.412;2023-05-07T02:21:41;3.77;;;3.20;;
16973;SDS011;8603;46.944;7.412;2023-05-07T02:24:07;4.27;;;3.37;;
16973;SDS011;8603;46.944;7.412;2023-05-07T02:26:33;3.77;;;3.30;;
16973;SDS011;8603;46.944;7.412;2023-05-07T02:28:59;3.90;;;3.10;;
16973;SDS011;8603;46.944;7.412;2023-05-07T02:31:25;3.53;;;3.23;;
16973;SDS011;8603;46.944;7.412;2023-05-07T02:33:51;7.63;;;3.33;;
16973;SDS011;8603;46.944;7.412;2023-05-07T02:36:16;3.90;;;3.40;;
16973;SDS011;8603;46.944;7.412;2023-05-07T02:38:42;3.40;;;2.97;;
16973;SDS011;8603;46.944;7.412;2023-05-07T02:41:08;4.80;;;3.50;;
16973;SDS011;8603;46.944;7.412;2023-05-07T02:43:33;3.40;;;3.10;;
16973;SDS011;8603;46.944;7.412;2023-05-07T02:46:03;3.93;;;3.40;;
16973;SDS011;8603;46.944;7.412;2023-05-07T02:48:32;4.27;;;3.43;;
16973;SDS011;8603;46.944;7.412;2023-05-07T02:50:59;4.93;;;2.93;;
16973;SDS011;8603;46.944;7.412;2023-05-07T02:53:25;3.83;;;3.20;;
16973;SDS011;8603;46.944;7.412;2023-05-07T02:55:53;3.40;;;3.10;;
16973;SDS011;8603;46.944;7.412;2023-05-07T02:58:19;5.43;;;3.30;;
16973;SDS011;8603;46.944;7.412;2023-05-07T03:00:45;5.63;;;3.60;;
16973;SDS011;8603;46.944;7.412;2023-05-07T03:03:10;4.77;;;3.40;;
16973;SDS011;8603;46.944;7.412;2023-05-07T03:05:36;4.03;;;3.60;;
16973;SDS011;8603;46.944;7.412;2023-05-07T03:08:02;4.50;;;3.40;;
16973;SDS011;8603;46.944;7.412;2023-05-07T03:10:29;3.50;;;3.20;;
16973;SDS011;8603;46.944;7.412;2023-05-07T03:12:55;5.80;;;3.50;;
16973;SDS011;8603;46.944;7.412;2023-05-07T03:15:20;6.03;;;3.60;;
16973;SDS011;8603;46.944;7.412;2023-05-07T03:17:46;4.80;;;3.80;;
16973;SDS011;8603;46.944;7.412;2023-05-07T03:20:12;4.50;;;4.00;;
16973;SDS011;8603;46.944;7.412;2023-05-07T03:22:38;5.43;;;3.33;;
16973;SDS011;8603;46.944;7.412;2023-05-07T03:25:05;3.73;;;3.37;;
16973;SDS011;8603;46.944;7.412;2023-05-07T03:27:31;3.93;;;3.40;;
16973;SDS011;8603;46.944;7.412;2023-05-07T03:29:57;3.73;;;3.40;;
16973;SDS011;8603;46.944;7.412;2023-05-07T03:32:22;4.47;;;3.20;;
16973;SDS011;8603;46.944;7.412;2023-05-07T03:34:48;4.43;;;3.50;;
16973;SDS011;8603;46.944;7.412;2023-05-07T03:37:14;6.50;;;3.90;;
16973;SDS011;8603;46.944;7.412;2023-05-07T03:39:40;5.07;;;3.87;;
16973;SDS011;8603;46.944;7.412;2023-05-07T03:42:05;5.17;;;4.17;;
16973;SDS011;8603;46.944;7.412;2023-05-07T03:44:32;4.93;;;3.60;;
16973;SDS011;8603;46.944;7.412;2023-05-07T03:46:57;5.10;;;4.27;;
16973;SDS011;8603;46.944;7.412;2023-05-07T03:49:23;4.63;;;3.83;;
16973;SDS011;8603;46.944;7.412;2023-05-07T03:51:48;4.60;;;3.93;;
16973;SDS011;8603;46.944;7.412;2023-05-07T03:54:14;5.33;;;3.70;;
16973;SDS011;8603;46.944;7.412;2023-05-07T03:56:39;5.83;;;3.80;;
16973;SDS011;8603;46.944;7.412;2023-05-07T03:59:05;3.87;;;3.43;;
16973;SDS011;8603;46.944;7.412;2023-05-07T04:01:31;4.53;;;4.10;;
16973;SDS011;8603;46.944;7.412;2023-05-07T04:03:56;4.30;;;3.33;;
16973;SDS011;8603;46.944;7.412;2023-05-07T04:06:22;4.17;;;3.63;;
16973;SDS011;8603;46.944;7.412;2023-05-07T04:08:48;4.90;;;4.40;;
16973;SDS011;8603;46.944;7.412;2023-05-07T04:11:13;6.03;;;3.83;;
16973;SDS011;8603;46.944;7.412;2023-05-07T04:13:39;5.07;;;4.00;;
16973;SDS011;8603;46.944;7.412;2023-05-07T04:16:06;7.90;;;4.40;;
16973;SDS011;8603;46.944;7.412;2023-05-07T04:18:31;6.27;;;4.47;;
16973;SDS011;8603;46.944;7.412;2023-05-07T04:21:00;5.87;;;4.03;;
16973;SDS011;8603;46.944;7.412;2023-05-07T04:23:26;5.93;;;4.20;;
16973;SDS011;8603;46.944;7.412;2023-05-07T04:25:52;6.17;;;4.57;;
16973;SDS011;8603;46.944;7.412;2023-05-07T04:28:21;4.43;;;4.03;;
16973;SDS011;8603;46.944;7.412;2023-05-07T04:30:47;6.33;;;4.67;;
16973;SDS011;8603;46.944;7.412;2023-05-07T04:33:13;7.37;;;4.00;;
16973;SDS011;8603;46.944;7.412;2023-05-07T04:35:41;5.10;;;4.23;;
16973;SDS011;8603;46.944;7.412;2023-05-07T04:38:07;4.20;;;3.80;;
16973;SDS011;8603;46.944;7.412;2023-05-07T04:40:33;4.13;;;3.73;;
16973;SDS011;8603;46.944;7.412;2023-05-07T04:43:00;6.40;;;4.53;;
16973;SDS011;8603;46.944;7.412;2023-05-07T04:45:26;6.37;;;4.40;;
16973;SDS011;8603;46.944;7.412;2023-05-07T04:47:51;4.50;;;4.10;;
16973;SDS011;8603;46.944;7.412;2023-05-07T04:50:17;6.73;;;5.30;;
16973;SDS011;8603;46.944;7.412;2023-05-07T04:52:44;14.80;;;11.07;;
16973;SDS011;8603;46.944;7.412;2023-05-07T04:55:10;22.53;;;16.80;;
16973;SDS011;8603;46.944;7.412;2023-05-07T04:57:36;15.13;;;13.37;;
16973;SDS011;8603;46.944;7.412;2023-05-07T05:00:03;11.93;;;10.07;;
16973;SDS011;8603;46.944;7.412;2023-05-07T05:02:29;8.87;;;7.43;;
16973;SDS011;8603;46.944;7.412;2023-05-07T05:04:55;8.53;;;6.47;;
16973;SDS011;8603;46.944;7.412;2023-05-07T05:07:21;4.20;;;3.63;;
16973;SDS011;8603;46.944;7.412;2023-05-07T05:09:47;8.90;;;6.00;;
16973;SDS011;8603;46.944;7.412;2023-05-07T05:12:13;6.33;;;5.73;;
16973;SDS011;8603;46.944;7.412;2023-05-07T05:14:38;5.83;;;5.33;;
16973;SDS011;8603;46.944;7.412;2023-05-07T05:17:04;5.00;;;4.20;;
16973;SDS011;8603;46.944;7.412;2023-05-07T05:19:29;7.20;;;5.90;;
16973;SDS011;8603;46.944;7.412;2023-05-07T05:21:55;9.07;;;6.10;;
16973;SDS011;8603;46.944;7.412;2023-05-07T05:24:21;5.60;;;4.37;;
16973;SDS011;8603;46.944;7.412;2023-05-07T05:26:46;3.73;;;3.40;;
16973;SDS011;8603;46.944;7.412;2023-05-07T05:29:12;3.42;;;2.50;;
16973;SDS011;8603;46.944;7.412;2023-05-07T05:31:38;2.97;;;2.20;;
16973;SDS011;8603;46.944;7.412;2023-05-07T05:34:04;2.63;;;2.10;;
16973;SDS011;8603;46.944;7.412;2023-05-07T05:36:29;2.17;;;1.92;;
16973;SDS011;8603;46.944;7.412;2023-05-07T05:38:55;2.35;;;1.95;;
16973;SDS011;8603;46.944;7.412;2023-05-07T05:41:21;2.05;;;1.85;;
16973;SDS011;8603;46.944;7.412;2023-05-07T05:43:46;3.45;;;2.05;;
16973;SDS011;8603;46.944;7.412;2023-05-07T05:46:12;2.38;;;1.80;;
16973;SDS011;8603;46.944;7.412;2023-05-07T05:48:38;2.03;;;1.80;;
16973;SDS011;8603;46.944;7.412;2023-05-07T05:51:03;5.38;;;2.00;;
16973;SDS011;8603;46.944;7.412;2023-05-07T05:53:29;3.67;;;1.90;;
16973;SDS011;8603;46.944;7.412;2023-05-07T05:55:55;2.30;;;1.90;;
16973;SDS011;8603;46.944;7.412;2023-05-07T05:58:21;2.50;;;1.80;;
16973;SDS011;8603;46.944;7.412;2023-05-07T06:00:47;2.63;;;1.85;;
16973;SDS011;8603;46.944;7.412;2023-05-07T06:03:13;2.17;;;1.95;;
16973;SDS011;8603;46.944;7.412;2023-05-07T06:05:39;2.70;;;1.90;;
16973;SDS011;8603;46.944;7.412;2023-05-07T06:08:04;2.08;;;1.83;;
16973;SDS011;8603;46.944;7.412;2023-05-07T06:10:30;2.28;;;1.80;;
16973;SDS011;8603;46.944;7.412;2023-05-07T06:12:56;3.63;;;2.10;;
16973;SDS011;8603;46.944;7.412;2023-05-07T06:15:22;3.92;;;1.85;;
16973;SDS011;8603;46.944;7.412;2023-05-07T06:17:48;1.98;;;1.88;;
16973;SDS011;8603;46.944;7.412;2023-05-07T06:20:14;2.22;;;1.95;;
16973;SDS011;8603;46.944;7.412;2023-05-07T06:22:40;3.22;;;2.13;;
16973;SDS011;8603;46.944;7.412;2023-05-07T06:25:06;2.10;;;1.90;;
16973;SDS011;8603;46.944;7.412;2023-05-07T06:27:32;2.90;;;1.95;;
16973;SDS011;8603;46.944;7.412;2023-05-07T06:29:58;5.07;;;2.20;;
16973;SDS011;8603;46.944;7.412;2023-05-07T06:32:23;2.75;;;1.60;;
16973;SDS011;8603;46.944;7.412;2023-05-07T06:34:49;3.25;;;2.20;;
16973;SDS011;8603;46.944;7.412;2023-05-07T06:37:15;2.60;;;1.90;;
16973;SDS011;8603;46.944;7.412;2023-05-07T06:39:41;3.03;;;1.83;;
16973;SDS011;8603;46.944;7.412;2023-05-07T06:42:06;4.43;;;1.75;;
16973;SDS011;8603;46.944;7.412;2023-05-07T06:44:33;1.73;;;1.63;;
16973;SDS011;8603;46.944;7.412;2023-05-07T06:46:58;5.65;;;1.95;;
16973;SDS011;8603;46.944;7.412;2023-05-07T06:49:24;2.15;;;1.95;;
16973;SDS011;8603;46.944;7.412;2023-05-07T06:51:53;4.38;;;1.75;;
16973;SDS011;8603;46.944;7.412;2023-05-07T06:54:19;1.98;;;1.80;;
16973;SDS011;8603;46.944;7.412;2023-05-07T06:56:46;2.47;;;1.77;;
16973;SDS011;8603;46.944;7.412;2023-05-07T06:59:13;3.42;;;1.65;;
16973;SDS011;8603;46.944;7.412;2023-05-07T07:01:41;3.17;;;1.90;;
16973;SDS011;8603;46.944;7.412;2023-05-07T07:04:06;3.35;;;1.90;;
16973;SDS011;8603;46.944;7.412;2023-05-07T07:06:35;2.22;;;1.80;;
16973;SDS011;8603;46.944;7.412;2023-05-07T07:09:00;2.00;;;1.75;;
16973;SDS011;8603;46.944;7.412;2023-05-07T07:11:26;4.35;;;2.10;;
16973;SDS011;8603;46.944;7.412;2023-05-07T07:13:52;3.67;;;1.90;;
16973;SDS011;8603;46.944;7.412;2023-05-07T07:16:19;3.05;;;2.00;;
16973;SDS011;8603;46.944;7.412;2023-05-07T07:18:45;4.30;;;2.35;;
16973;SDS011;8603;46.944;7.412;2023-05-07T07:21:11;3.88;;;1.98;;
16973;SDS011;8603;46.944;7.412;2023-05-07T07:23:37;2.22;;;1.90;;
16973;SDS011;8603;46.944;7.412;2023-05-07T07:26:02;4.05;;;2.10;;
16973;SDS011;8603;46.944;7.412;2023-05-07T07:28:31;4.20;;;2.30;;
16973;SDS011;8603;46.944;7.412;2023-05-07T07:31:01;1.90;;;1.80;;
16973;SDS011;8603;46.944;7.412;2023-05-07T07:33:26;1.90;;;1.80;;
16973;SDS011;8603;46.944;7.412;2023-05-07T07:35:52;4.78;;;1.98;;
16973;SDS011;8603;46.944;7.412;2023-05-07T07:38:19;3.30;;;2.20;;
16973;SDS011;8603;46.944;7.412;2023-05-07T07:40:47;3.05;;;2.40;;
16973;SDS011;8603;46.944;7.412;2023-05-07T07:43:13;2.55;;;2.10;;
16973;SDS011;8603;46.944;7.412;2023-05-07T07:45:41;3.97;;;2.20;;
16973;SDS011;8603;46.944;7.412;2023-05-07T07:48:06;3.70;;;2.22;;
16973;SDS011;8603;46.944;7.412;2023-05-07T07:50:32;3.85;;;3.00;;
16973;SDS011;8603;46.944;7.412;2023-05-07T07:52:58;4.78;;;2.22;;
16973;SDS011;8603;46.944;7.412;2023-05-07T07:55:25;3.35;;;2.15;;
16973;SDS011;8603;46.944;7.412;2023-05-07T07:57:52;3.30;;;2.67;;
16973;SDS011;8603;46.944;7.412;2023-05-07T08:00:17;3.63;;;2.45;;
16973;SDS011;8603;46.944;7.412;2023-05-07T08:02:43;3.03;;;2.35;;
16973;SDS011;8603;46.944;7.412;2023-05-07T08:05:09;3.13;;;2.10;;
16973;SDS011;8603;46.944;7.412;2023-05-07T08:07:34;3.45;;;2.20;;
16973;SDS011;8603;46.944;7.412;2023-05-07T08:10:00;4.13;;;2.50;;
16973;SDS011;8603;46.944;7.412;2023-05-07T08:12:27;2.45;;;2.25;;
16973;SDS011;8603;46.944;7.412;2023-05-07T08:14:53;2.50;;;2.30;;
16973;SDS011;8603;46.944;7.412;2023-05-07T08:17:18;2.78;;;2.42;;
16973;SDS011;8603;46.944;7.412;2023-05-07T08:19:47;2.33;;;2.13;;
16973;SDS011;8603;46.944;7.412;2023-05-07T08:22:13;6.03;;;2.40;;
16973;SDS011;8603;46.944;7.412;2023-05-07T08:24:40;2.78;;;2.58;;
16973;SDS011;8603;46.944;7.412;2023-05-07T08:27:11;2.20;;;2.00;;
16973;SDS011;8603;46.944;7.412;2023-05-07T08:29:37;2.55;;;1.83;;
16973;SDS011;8603;46.944;7.412;2023-05-07T08:32:12;1.92;;;1.83;;
16973;SDS011;8603;46.944;7.412;2023-05-07T08:34:38;2.75;;;2.20;;
16973;SDS011;8603;46.944;7.412;2023-05-07T08:37:04;2.45;;;2.25;;
16973;SDS011;8603;46.944;7.412;2023-05-07T08:39:29;3.72;;;2.13;;
16973;SDS011;8603;46.944;7.412;2023-05-07T08:41:55;2.30;;;2.03;;
16973;SDS011;8603;46.944;7.412;2023-05-07T08:44:22;4.57;;;2.10;;
16973;SDS011;8603;46.944;7.412;2023-05-07T08:46:51;2.60;;;1.77;;
16973;SDS011;8603;46.944;7.412;2023-05-07T08:49:18;3.50;;;2.30;;
16973;SDS011;8603;46.944;7.412;2023-05-07T08:51:45;2.70;;;2.17;;
16973;SDS011;8603;46.944;7.412;2023-05-07T08:54:11;4.47;;;2.35;;
16973;SDS011;8603;46.944;7.412;2023-05-07T08:56:41;2.85;;;2.20;;
16973;SDS011;8603;46.944;7.412;2023-05-07T08:59:06;3.20;;;2.30;;
16973;SDS011;8603;46.944;7.412;2023-05-07T09:01:32;3.92;;;2.30;;
16973;SDS011;8603;46.944;7.412;2023-05-07T09:04:00;3.08;;;2.30;;
16973;SDS011;8603;46.944;7.412;2023-05-07T09:06:26;2.33;;;2.10;;
16973;SDS011;8603;46.944;7.412;2023-05-07T09:08:52;3.20;;;2.40;;
16973;SDS011;8603;46.944;7.412;2023-05-07T09:11:19;2.75;;;2.20;;
16973;SDS011;8603;46.944;7.412;2023-05-07T09:13:46;3.05;;;2.38;;
16973;SDS011;8603;46.944;7.412;2023-05-07T09:16:12;4.15;;;2.05;;
16973;SDS011;8603;46.944;7.412;2023-05-07T09:18:41;2.15;;;1.90;;
16973;SDS011;8603;46.944;7.412;2023-05-07T09:21:15;4.47;;;2.00;;
16973;SDS011;8603;46.944;7.412;2023-05-07T09:23:41;1.95;;;1.67;;
16973;SDS011;8603;46.944;7.412;2023-05-07T09:26:07;1.90;;;1.80;;
16973;SDS011;8603;46.944;7.412;2023-05-07T09:28:40;2.38;;;1.75;;
16973;SDS011;8603;46.944;7.412;2023-05-07T09:31:09;2.45;;;1.60;;
16973;SDS011;8603;46.944;7.412;2023-05-07T09:33:36;1.70;;;1.60;;
16973;SDS011;8603;46.944;7.412;2023-05-07T09:36:03;2.63;;;1.95;;
16973;SDS011;8603;46.944;7.412;2023-05-07T09:38:32;1.90;;;1.80;;
16973;SDS011;8603;46.944;7.412;2023-05-07T09:41:05;1.70;;;1.60;;
16973;SDS011;8603;46.944;7.412;2023-05-07T09:43:36;2.75;;;1.85;;
16973;SDS011;8603;46.944;7.412;2023-05-07T09:46:06;2.00;;;1.85;;
16973;SDS011;8603;46.944;7.412;2023-05-07T09:48:37;2.88;;;1.90;;
16973;SDS011;8603;46.944;7.412;2023-05-07T09:51:06;3.03;;;1.75;;
16973;SDS011;8603;46.944;7.412;2023-05-07T09:53:41;3.05;;;2.15;;
16973;SDS011;8603;46.944;7.412;2023-05-07T09:56:08;2.17;;;1.73;;
16973;SDS011;8603;46.944;7.412;2023-05-07T09:58:36;2.10;;;1.90;;
16973;SDS011;8603;46.944;7.412;2023-05-07T10:01:03;3.05;;;2.25;;
16973;SDS011;8603;46.944;7.412;2023-05-07T10:03:29;2.63;;;2.15;;
16973;SDS011;8603;46.944;7.412;2023-05-07T10:05:57;2.53;;;2.08;;
16973;SDS011;8603;46.944;7.412;2023-05-07T10:08:24;3.05;;;2.28;;
16973;SDS011;8603;46.944;7.412;2023-05-07T10:10:50;4.78;;;2.17;;
16973;SDS011;8603;46.944;7.412;2023-05-07T10:13:16;3.13;;;2.42;;
16973;SDS011;8603;46.944;7.412;2023-05-07T10:15:43;2.42;;;2.20;;
16973;SDS011;8603;46.944;7.412;2023-05-07T10:18:09;3.92;;;2.10;;
16973;SDS011;8603;46.944;7.412;2023-05-07T10:20:37;2.55;;;2.08;;
16973;SDS011;8603;46.944;7.412;2023-05-07T10:23:04;2.83;;;2.00;;
16973;SDS011;8603;46.944;7.412;2023-05-07T10:25:33;2.25;;;2.05;;
16973;SDS011;8603;46.944;7.412;2023-05-07T10:28:00;4.40;;;2.67;;
16973;SDS011;8603;46.944;7.412;2023-05-07T10:33:19;3.30;;;2.38;;
16973;SDS011;8603;46.944;7.412;2023-05-07T10:35:55;2.95;;;2.00;;
16973;SDS011;8603;46.944;7.412;2023-05-07T10:38:24;4.57;;;2.03;;
16973;SDS011;8603;46.944;7.412;2023-05-07T10:40:50;1.92;;;1.70;;
16973;SDS011;8603;46.944;7.412;2023-05-07T10:43:16;2.50;;;2.03;;
16973;SDS011;8603;46.944;7.412;2023-05-07T10:45:42;3.17;;;2.30;;
16973;SDS011;8603;46.944;7.412;2023-05-07T10:50:40;2.97;;;2.05;;
16973;SDS011;8603;46.944;7.412;2023-05-07T10:55:42;2.40;;;2.20;;
16973;SDS011;8603;46.944;7.412;2023-05-07T10:58:28;2.25;;;1.95;;
16973;SDS011;8603;46.944;7.412;2023-05-07T11:00:56;1.70;;;1.60;;
16973;SDS011;8603;46.944;7.412;2023-05-07T11:03:23;2.42;;;2.20;;
16973;SDS011;8603;46.944;7.412;2023-05-07T11:06:08;2.17;;;1.83;;
16973;SDS011;8603;46.944;7.412;2023-05-07T11:11:42;2.30;;;1.95;;
16973;SDS011;8603;46.944;7.412;2023-05-07T11:14:09;2.42;;;2.22;;
16973;SDS011;8603;46.944;7.412;2023-05-07T11:16:35;3.55;;;2.10;;
16973;SDS011;8603;46.944;7.412;2023-05-07T11:19:03;2.30;;;2.10;;
16973;SDS011;8603;46.944;7.412;2023-05-07T11:24:01;2.47;;;2.05;;
16973;SDS011;8603;46.944;7.412;2023-05-07T11:26:28;2.30;;;2.00;;
16973;SDS011;8603;46.944;7.412;2023-05-07T11:28:56;2.72;;;2.10;;
16973;SDS011;8603;46.944;7.412;2023-05-07T11:31:25;3.50;;;2.05;;
16973;SDS011;8603;46.944;7.412;2023-05-07T11:33:53;3.08;;;1.95;;
16973;SDS011;8603;46.944;7.412;2023-05-07T11:36:21;2.45;;;1.83;;
16973;SDS011;8603;46.944;7.412;2023-05-07T11:38:48;2.47;;;1.98;;
16973;SDS011;8603;46.944;7.412;2023-05-07T11:41:15;2.40;;;1.95;;
16973;SDS011;8603;46.944;7.412;2023-05-07T11:44:03;2.00;;;1.88;;
16973;SDS011;8603;46.944;7.412;2023-05-07T11:46:28;3.80;;;1.95;;
16973;SDS011;8603;46.944;7.412;2023-05-07T11:48:57;6.63;;;2.25;;
16973;SDS011;8603;46.944;7.412;2023-05-07T11:51:24;2.75;;;1.95;;
16973;SDS011;8603;46.944;7.412;2023-05-07T11:53:51;4.20;;;2.10;;
16973;SDS011;8603;46.944;7.412;2023-05-07T11:56:17;2.33;;;2.10;;
16973;SDS011;8603;46.944;7.412;2023-05-07T11:58:44;1.95;;;1.83;;
16973;SDS011;8603;46.944;7.412;2023-05-07T12:01:11;2.50;;;1.90;;
16973;SDS011;8603;46.944;7.412;2023-05-07T12:03:40;2.45;;;2.25;;
16973;SDS011;8603;46.944;7.412;2023-05-07T12:06:07;3.72;;;2.20;;
16973;SDS011;8603;46.944;7.412;2023-05-07T12:08:36;3.55;;;2.25;;
16973;SDS011;8603;46.944;7.412;2023-05-07T12:11:03;1.90;;;1.80;;
16973;SDS011;8603;46.944;7.412;2023-05-07T12:13:31;4.70;;;2.17;;
16973;SDS011;8603;46.944;7.412;2023-05-07T12:15:57;2.72;;;2.20;;
16973;SDS011;8603;46.944;7.412;2023-05-07T12:18:23;3.45;;;2.10;;
16973;SDS011;8603;46.944;7.412;2023-05-07T12:20:50;2.85;;;2.35;;
16973;SDS011;8603;46.944;7.412;2023-05-07T12:23:16;2.35;;;1.92;;
16973;SDS011;8603;46.944;7.412;2023-05-07T12:25:42;1.80;;;1.67;;
16973;SDS011;8603;46.944;7.412;2023-05-07T12:28:18;3.05;;;2.00;;
16973;SDS011;8603;46.944;7.412;2023-05-07T12:30:45;3.22;;;1.98;;
16973;SDS011;8603;46.944;7.412;2023-05-07T12:33:15;3.45;;;1.83;;
16973;SDS011;8603;46.944;7.412;2023-05-07T12:35:43;2.28;;;2.08;;
16973;SDS011;8603;46.944;7.412;2023-05-07T12:38:12;2.88;;;2.00;;
16973;SDS011;8603;46.944;7.412;2023-05-07T12:40:40;2.97;;;2.20;;
16973;SDS011;8603;46.944;7.412;2023-05-07T12:43:26;2.78;;;2.38;;
16973;SDS011;8603;46.944;7.412;2023-05-07T12:45:55;3.92;;;2.05;;
16973;SDS011;8603;46.944;7.412;2023-05-07T12:48:23;2.35;;;2.00;;
16973;SDS011;8603;46.944;7.412;2023-05-07T12:50:52;2.67;;;1.80;;
16973;SDS011;8603;46.944;7.412;2023-05-07T12:53:20;2.95;;;2.28;;
16973;SDS011;8603;46.944;7.412;2023-05-07T12:55:47;4.30;;;2.45;;
16973;SDS011;8603;46.944;7.412;2023-05-07T12:58:15;5.65;;;2.50;;
16973;SDS011;8603;46.944;7.412;2023-05-07T13:00:47;2.63;;;2.33;;
16973;SDS011;8603;46.944;7.412;2023-05-07T13:03:20;3.33;;;2.15;;
16973;SDS011;8603;46.944;7.412;2023-05-07T13:06:01;4.65;;;2.35;;
16973;SDS011;8603;46.944;7.412;2023-05-07T13:08:29;2.20;;;1.80;;
16973;SDS011;8603;46.944;7.412;2023-05-07T13:10:55;2.33;;;2.20;;
16973;SDS011;8603;46.944;7.412;2023-05-07T13:13:28;3.15;;;2.10;;
16973;SDS011;8603;46.944;7.412;2023-05-07T13:15:54;2.58;;;2.00;;
16973;SDS011;8603;46.944;7.412;2023-05-07T13:18:20;2.55;;;2.35;;
16973;SDS011;8603;46.944;7.412;2023-05-07T13:20:45;3.83;;;2.58;;
16973;SDS011;8603;46.944;7.412;2023-05-07T13:23:11;2.97;;;2.20;;
16973;SDS011;8603;46.944;7.412;2023-05-07T13:25:36;2.53;;;2.00;;
16973;SDS011;8603;46.944;7.412;2023-05-07T13:28:02;2.47;;;2.28;;
16973;SDS011;8603;46.944;7.412;2023-05-07T13:30:29;3.10;;;2.63;;
16973;SDS011;8603;46.944;7.412;2023-05-07T13:32:55;2.92;;;2.50;;
16973;SDS011;8603;46.944;7.412;2023-05-07T13:35:21;4.03;;;3.20;;
16973;SDS011;8603;46.944;7.412;2023-05-07T13:37:47;4.60;;;2.92;;
16973;SDS011;8603;46.944;7.412;2023-05-07T13:40:14;4.28;;;2.78;;
16973;SDS011;8603;46.944;7.412;2023-05-07T13:42:40;4.80;;;3.00;;
16973;SDS011;8603;46.944;7.412;2023-05-07T13:45:06;5.43;;;2.75;;
16973;SDS011;8603;46.944;7.412;2023-05-07T13:47:33;4.70;;;2.88;;
16973;SDS011;8603;46.944;7.412;2023-05-07T13:49:59;4.32;;;2.78;;
16973;SDS011;8603;46.944;7.412;2023-05-07T13:52:25;3.83;;;2.75;;
16973;SDS011;8603;46.944;7.412;2023-05-07T13:55:00;4.45;;;3.08;;
16973;SDS011;8603;46.944;7.412;2023-05-07T13:57:25;4.65;;;3.10;;
16973;SDS011;8603;46.944;7.412;2023-05-07T13:59:54;5.15;;;3.20;;
16973;SDS011;8603;46.944;7.412;2023-05-07T14:02:23;7.45;;;3.25;;
16973;SDS011;8603;46.944;7.412;2023-05-07T14:04:52;5.60;;;3.45;;
16973;SDS011;8603;46.944;7.412;2023-05-07T14:07:18;5.45;;;3.10;;
16973;SDS011;8603;46.944;7.412;2023-05-07T14:09:43;4.50;;;3.25;;
16973;SDS011;8603;46.944;7.412;2023-05-07T14:12:10;5.82;;;2.90;;
16973;SDS011;8603;46.944;7.412;2023-05-07T14:14:36;3.00;;;2.50;;
16973;SDS011;8603;46.944;7.412;2023-05-07T14:17:01;4.68;;;2.45;;
16973;SDS011;8603;46.944;7.412;2023-05-07T14:19:27;7.57;;;1.92;;
16973;SDS011;8603;46.944;7.412;2023-05-07T14:22:00;6.97;;;2.22;;
16973;SDS011;8603;46.944;7.412;2023-05-07T14:24:28;3.58;;;2.05;;
16973;SDS011;8603;46.944;7.412;2023-05-07T14:26:53;2.88;;;2.13;;
16973;SDS011;8603;46.944;7.412;2023-05-07T14:29:19;2.15;;;1.83;;
16973;SDS011;8603;46.944;7.412;2023-05-07T14:31:45;2.20;;;1.90;;
16973;SDS011;8603;46.944;7.412;2023-05-07T14:34:13;4.07;;;2.45;;
16973;SDS011;8603;46.944;7.412;2023-05-07T14:36:39;5.00;;;1.90;;
16973;SDS011;8603;46.944;7.412;2023-05-07T14:39:04;3.38;;;1.90;;
16973;SDS011;8603;46.944;7.412;2023-05-07T14:41:30;2.80;;;1.90;;
16973;SDS011;8603;46.944;7.412;2023-05-07T14:43:58;3.13;;;1.60;;
16973;SDS011;8603;46.944;7.412;2023-05-07T14:46:23;3.33;;;1.75;;
16973;SDS011;8603;46.944;7.412;2023-05-07T14:48:49;1.83;;;1.45;;
16973;SDS011;8603;46.944;7.412;2023-05-07T14:51:15;4.53;;;1.70;;
16973;SDS011;8603;46.944;7.412;2023-05-07T14:53:42;3.47;;;2.03;;
16973;SDS011;8603;46.944;7.412;2023-05-07T14:56:07;2.00;;;1.75;;
16973;SDS011;8603;46.944;7.412;2023-05-07T14:58:33;3.78;;;1.73;;
16973;SDS011;8603;46.944;7.412;2023-05-07T15:01:00;3.00;;;1.88;;
16973;SDS011;8603;46.944;7.412;2023-05-07T15:03:29;2.35;;;1.98;;
16973;SDS011;8603;46.944;7.412;2023-05-07T15:05:55;2.90;;;1.75;;
16973;SDS011;8603;46.944;7.412;2023-05-07T15:08:23;2.20;;;1.65;;
16973;SDS011;8603;46.944;7.412;2023-05-07T15:10:49;3.17;;;2.10;;
16973;SDS011;8603;46.944;7.412;2023-05-07T15:13:18;3.42;;;1.85;;